Time;durP1;ratioP1;P1;durP2;ratioP2;P2;SDS_P1;SDS_P2;PMS_P1;PMS_P2;Temp;Humidity;BMP_temperature;BMP_pressure;BME280_temperature;BME280_humidity;BME280_pressure;Samples;Min_cycle;Max_cycle;Signal;HPM_P1;HPM_P2
2023/11/06 00:01:52;;;;;;;7.63;4.22;;;;;;;9.86;100.00;97643.31;5044480;28;20512;-40
2023/11/06 00:04:18;;;;;;;7.07;4.40;;;;;;;9.78;100.00;97629.09;5031134;28;20127;-40
2023/11/06 00:06:44;;;;;;;7.95;4.55;;;;;;;9.79;100.00;97625.53;5032106;28;20355;-40
2023/11/06 00:09:10;;;;;;;8.30;4.95;;;;;;;9.64;100.00;97597.13;5028488;28;20041;-39
2023/11/06 00:11:36;;;;;;;12.93;5.55;;;;;;;9.68;100.00;97602.03;5026606;28;20075;-41
2023/11/06 00:14:02;;;;;;;12.48;6.18;;;;;;;9.86;100.00;97625.97;5029335;28;20041;-40
2023/11/06 00:16:28;;;;;;;8.98;5.10;;;;;;;9.86;100.00;97625.97;5029931;28;20050;-40
2023/11/06 00:18:54;;;;;;;10.52;5.60;;;;;;;9.88;100.00;97625.88;5027675;28;20044;-39
2023/11/06 00:21:21;;;;;;;12.35;6.80;;;;;;;9.88;100.00;97621.53;5047755;28;20065;-39
2023/11/06 00:23:48;;;;;;;8.85;5.55;;;;;;;9.79;100.00;97602.19;5032846;28;20129;-40
2023/11/06 00:26:16;;;;;;;14.63;6.82;;;;;;;9.87;100.00;97619.88;5047018;28;20124;-38
2023/11/06 00:28:53;;;;;;;12.75;6.30;;;;;;;9.88;100.00;97605.13;5032364;28;20041;-41
2023/11/06 00:31:21;;;;;;;10.38;6.25;;;;;;;9.76;100.00;97571.25;5034401;28;20043;-40
2023/11/06 00:33:48;;;;;;;10.07;6.45;;;;;;;9.84;100.00;97583.72;5033332;28;20084;-40
2023/11/06 00:36:18;;;;;;;10.52;6.80;;;;;;;9.95;100.00;97594.22;5038767;28;20098;-39
2023/11/06 00:38:45;;;;;;;13.18;5.65;;;;;;;9.82;100.00;97575.22;5047881;28;20048;-41
2023/11/06 00:41:12;;;;;;;9.40;5.95;;;;;;;10.01;100.00;97601.63;5050747;28;20504;-39
2023/11/06 00:43:38;;;;;;;10.75;5.95;;;;;;;10.03;100.00;97596.34;5048719;28;20049;-40
2023/11/06 00:46:04;;;;;;;10.88;5.40;;;;;;;9.99;100.00;97592.28;5033881;28;20044;-40
2023/11/06 00:48:30;;;;;;;8.75;5.47;;;;;;;9.92;100.00;97591.00;5014980;28;20104;-40
2023/11/06 00:50:56;;;;;;;14.95;6.55;;;;;;;9.90;100.00;97580.72;5051268;28;20063;-41
2023/11/06 00:53:22;;;;;;;13.45;7.32;;;;;;;9.87;100.00;97569.72;5036121;28;20041;-41
2023/11/06 00:55:48;;;;;;;9.68;6.00;;;;;;;10.01;100.00;97580.84;5033924;28;20624;-40
2023/11/06 00:58:16;;;;;;;9.20;5.53;;;;;;;10.03;100.00;97597.19;5019013;28;20091;-40
2023/11/06 01:00:42;;;;;;;7.60;5.57;;;;;;;10.00;100.00;97593.94;5037945;28;20041;-41
2023/11/06 01:03:10;;;;;;;7.53;4.95;;;;;;;9.86;100.00;97568.88;5051367;28;20156;-40
2023/11/06 01:05:37;;;;;;;11.40;5.57;;;;;;;9.85;100.00;97556.00;5031187;28;20069;-40
2023/11/06 01:08:04;;;;;;;9.50;5.28;;;;;;;9.96;100.00;97577.72;5057590;28;20037;-40
2023/11/06 01:10:34;;;;;;;10.48;5.05;;;;;;;9.92;100.00;97578.88;5030207;28;20041;-39
2023/11/06 01:13:01;;;;;;;10.45;6.30;;;;;;;9.80;100.00;97556.31;5032145;28;20045;-40
2023/11/06 01:15:27;;;;;;;10.80;6.45;;;;;;;9.96;100.00;97572.53;5017243;28;20045;-39
2023/11/06 01:17:53;;;;;;;11.70;6.57;;;;;;;9.92;100.00;97557.28;5035060;28;20044;-39
2023/11/06 01:20:24;;;;;;;11.02;6.43;;;;;;;9.96;100.00;97574.31;5048953;28;20029;-40
2023/11/06 01:22:51;;;;;;;12.55;6.55;;;;;;;9.95;100.00;97568.28;5032403;28;20520;-40
2023/11/06 01:25:18;;;;;;;11.93;5.82;;;;;;;9.96;100.00;97571.72;5023782;28;20044;-40
2023/11/06 01:27:45;;;;;;;13.82;7.65;;;;;;;9.90;100.00;97553.94;5034508;28;20045;-40
2023/11/06 01:30:12;;;;;;;12.45;6.75;;;;;;;9.96;100.00;97553.53;5039857;28;20186;-39
2023/11/06 01:32:39;;;;;;;12.40;6.95;;;;;;;9.92;100.00;97541.69;5051136;28;20489;-41
2023/11/06 01:35:06;;;;;;;14.00;7.88;;;;;;;10.04;100.00;97546.94;5049907;28;20041;-39
2023/11/06 01:37:32;;;;;;;13.30;7.45;;;;;;;10.08;100.00;97545.78;5047494;28;20052;-40
2023/11/06 01:39:58;;;;;;;14.25;8.07;;;;;;;10.05;100.00;97540.78;5034322;28;20037;-41
2023/11/06 01:42:24;;;;;;;12.57;8.25;;;;;;;10.10;100.00;97541.31;5034171;28;20501;-39
2023/11/06 01:44:50;;;;;;;15.27;8.95;;;;;;;10.18;100.00;97540.84;5034384;28;20080;-39
2023/11/06 01:47:16;;;;;;;16.05;8.30;;;;;;;9.92;100.00;97495.81;5049826;28;20037;-39
2023/11/06 01:49:44;;;;;;;14.40;8.35;;;;;;;10.26;100.00;97530.75;5048871;28;20090;-39
2023/11/06 01:52:14;;;;;;;13.63;8.60;;;;;;;10.14;100.00;97508.19;5031968;28;20052;-40
2023/11/06 01:54:40;;;;;;;15.20;8.52;;;;;;;10.35;100.00;97537.94;5034081;28;20048;-39
2023/11/06 01:57:07;;;;;;;16.02;9.00;;;;;;;10.41;100.00;97536.69;5035014;28;20059;-40
2023/11/06 01:59:33;;;;;;;14.80;8.68;;;;;;;10.44;100.00;97541.69;5049954;28;20190;-40
2023/11/06 02:02:05;;;;;;;13.20;8.15;;;;;;;10.47;100.00;97544.88;5049791;28;20521;-40
2023/11/06 02:04:32;;;;;;;13.40;8.32;;;;;;;10.47;100.00;97534.50;5034986;28;20032;-40
2023/11/06 02:06:58;;;;;;;16.35;8.93;;;;;;;10.50;100.00;97534.31;5034860;28;20471;-40
2023/11/06 02:09:28;;;;;;;14.50;8.48;;;;;;;10.54;100.00;97545.31;5046936;28;20042;-39
2023/11/06 02:11:54;;;;;;;;;;;;;;;10.54;100.00;97543.53;5036783;28;20047;-39
2023/11/06 02:14:20;;;;;;;13.65;7.45;;;;;;;10.56;100.00;97551.25;5051654;28;19917;-40
2023/11/06 02:16:46;;;;;;;16.35;8.57;;;;;;;10.57;100.00;97542.53;5049349;28;20043;-39
2023/11/06 02:19:13;;;;;;;13.18;8.40;;;;;;;10.55;100.00;97544.38;5046780;28;20095;-40
2023/11/06 02:21:39;;;;;;;14.50;7.63;;;;;;;10.63;100.00;97545.50;5031781;28;20127;-41
2023/11/06 02:24:12;;;;;;;14.10;8.60;;;;;;;10.57;100.00;97532.94;5055444;28;20095;-40
2023/11/06 02:26:38;;;;;;;13.35;8.00;;;;;;;10.68;100.00;97541.78;5048115;28;20072;-40
2023/11/06 02:29:04;;;;;;;11.02;6.82;;;;;;;10.72;100.00;97543.22;5033344;28;20170;-39
2023/11/06 02:31:30;;;;;;;14.70;8.45;;;;;;;10.77;100.00;97546.34;5034493;28;20048;-40
2023/11/06 02:33:56;;;;;;;15.02;8.02;;;;;;;10.80;100.00;97548.72;5039259;28;20033;-45
2023/11/06 02:36:21;;;;;;;15.02;8.63;;;;;;;10.70;100.00;97519.09;5033342;28;20060;-40
2023/11/06 02:38:47;;;;;;;15.98;8.35;;;;;;;10.87;100.00;97536.97;5038840;28;20075;-39
2023/11/06 02:41:14;;;;;;;13.63;7.80;;;;;;;10.90;100.00;97537.56;5033807;28;20045;-41
2023/11/06 02:43:39;;;;;;;12.45;7.45;;;;;;;10.97;100.00;97537.97;5030798;28;20064;-41
2023/11/06 02:46:06;;;;;;;15.32;7.93;;;;;;;11.01;100.00;97539.41;5032145;28;20496;-40
2023/11/06 02:48:32;;;;;;;12.90;7.55;;;;;;;11.05;100.00;97551.25;5043827;28;20045;-41
2023/11/06 02:50:58;;;;;;;9.80;5.55;;;;;;;10.97;100.00;97533.63;5034140;28;20064;-44
2023/11/06 02:53:25;;;;;;;11.40;5.78;;;;;;;11.05;100.00;97533.06;5049003;28;20037;-41
2023/11/06 02:55:53;;;;;;;10.48;6.88;;;;;;;11.12;100.00;97542.09;5035338;28;20064;-41
2023/11/06 02:58:21;;;;;;;8.70;5.30;;;;;;;11.17;100.00;97532.19;5047260;28;20590;-40
2023/11/06 03:00:48;;;;;;;11.13;6.57;;;;;;;10.93;100.00;97493.19;5031541;28;20103;-39
2023/11/06 03:03:14;;;;;;;9.52;5.55;;;;;;;11.26;100.00;97544.53;5032220;28;20041;-40
2023/11/06 03:05:40;;;;;;;9.85;5.97;;;;;;;11.28;100.00;97540.06;5030128;28;20050;-39
2023/11/06 03:08:06;;;;;;;7.57;4.70;;;;;;;11.34;100.00;97546.63;5042404;28;20517;-40
2023/11/06 03:10:32;;;;;;;6.20;3.45;;;;;;;11.19;100.00;97519.94;5030539;28;20477;-39
2023/11/06 03:12:58;;;;;;;5.78;4.03;;;;;;;11.37;100.00;97549.81;5026961;28;20044;-40
2023/11/06 03:15:24;;;;;;;5.43;3.33;;;;;;;11.38;100.00;97548.88;5047724;28;20194;-39
2023/11/06 03:17:50;;;;;;;6.60;3.92;;;;;;;11.40;100.00;97557.41;5048394;28;20063;-40
2023/11/06 03:20:16;;;;;;;7.95;3.72;;;;;;;11.42;100.00;97552.91;5034308;28;20497;-40
2023/11/06 03:22:41;;;;;;;5.22;2.90;;;;;;;11.45;100.00;97549.28;5052745;28;20055;-40
2023/11/06 03:25:09;;;;;;;5.13;2.70;;;;;;;11.43;100.00;97541.56;5031949;28;20072;-41
2023/11/06 03:27:36;;;;;;;2.78;1.90;;;;;;;11.43;100.00;97549.38;5048561;28;20045;-40
2023/11/06 03:30:04;;;;;;;3.13;1.20;;;;;;;11.43;100.00;97554.59;5032386;28;20421;-40
2023/11/06 03:32:32;;;;;;;1.60;0.93;;;;;;;11.43;100.00;97558.94;5029204;28;20112;-40
2023/11/06 03:35:00;;;;;;;2.70;1.48;;;;;;;11.40;100.00;97570.44;5035356;28;20583;-39
2023/11/06 03:37:26;;;;;;;1.98;1.27;;;;;;;11.38;100.00;97568.84;5029376;28;20087;-40
2023/11/06 03:39:53;;;;;;;2.13;0.80;;;;;;;11.03;100.00;97524.56;5047648;28;20045;-40
2023/11/06 03:42:19;;;;;;;1.40;0.68;;;;;;;11.28;100.00;97579.09;5039169;28;20036;-38
2023/11/06 03:44:45;;;;;;;0.55;0.50;;;;;;;11.27;100.00;97587.00;5030803;28;20067;-40
2023/11/06 03:47:11;;;;;;;1.73;0.50;;;;;;;11.19;100.00;97584.94;5032938;28;20037;-39
2023/11/06 03:49:38;;;;;;;1.27;0.30;;;;;;;11.14;100.00;97586.22;5017459;28;20052;-39
2023/11/06 03:52:10;;;;;;;3.40;0.40;;;;;;;11.11;100.00;97573.41;5036240;28;20037;-40
2023/11/06 03:54:40;;;;;;;1.05;0.60;;;;;;;11.05;100.00;97587.66;5030343;28;20045;-40
2023/11/06 03:57:06;;;;;;;;;;;;;;;11.00;99.38;97582.78;5031502;28;20044;-40
2023/11/06 03:59:32;;;;;;;0.30;0.20;;;;;;;10.92;97.93;97592.06;5047218;28;19920;-39
2023/11/06 04:01:58;;;;;;;0.50;0.20;;;;;;;10.88;97.51;97606.22;5047003;28;20226;-40
2023/11/06 04:04:24;;;;;;;0.30;0.20;;;;;;;10.83;95.73;97588.34;5041522;28;20099;-40
2023/11/06 04:06:50;;;;;;;0.20;0.20;;;;;;;10.80;94.65;97595.50;5036794;28;20041;-41
2023/11/06 04:09:16;;;;;;;0.30;0.20;;;;;;;10.61;93.52;97580.34;5036272;28;20425;-39
2023/11/06 04:11:42;;;;;;;0.20;0.10;;;;;;;10.67;90.80;97618.91;5032400;28;20033;-41
2023/11/06 04:14:08;;;;;;;0.20;0.15;;;;;;;10.58;90.09;97612.53;5051511;28;20072;-39
2023/11/06 04:16:34;;;;;;;0.25;0.17;;;;;;;10.52;89.70;97617.34;5036572;28;20041;-40
2023/11/06 04:19:00;;;;;;;1.20;0.40;;;;;;;10.40;90.73;97624.19;5050446;28;20037;-40
2023/11/06 04:21:26;;;;;;;0.45;0.45;;;;;;;10.38;92.06;97625.19;5034845;28;20037;-39
2023/11/06 04:23:52;;;;;;;1.67;0.47;;;;;;;10.22;92.79;97606.38;5036487;28;20542;-39
2023/11/06 04:26:18;;;;;;;1.15;0.60;;;;;;;10.27;93.71;97644.09;5035360;28;20045;-38
2023/11/06 04:28:44;;;;;;;0.70;0.50;;;;;;;10.18;93.37;97631.72;5035829;28;20453;-40
2023/11/06 04:31:10;;;;;;;0.70;0.57;;;;;;;10.10;94.60;97632.16;5035197;28;20037;-39
2023/11/06 04:33:36;;;;;;;0.77;0.50;;;;;;;9.89;94.69;97596.41;5035385;28;20038;-39
2023/11/06 04:36:02;;;;;;;0.77;0.40;;;;;;;10.07;94.58;97636.75;5036529;28;20049;-40
2023/11/06 04:38:28;;;;;;;0.73;0.65;;;;;;;10.02;93.64;97649.19;5051665;28;20041;-40
2023/11/06 04:40:54;;;;;;;0.73;0.40;;;;;;;9.98;92.65;97643.38;5045920;28;20143;-40
2023/11/06 04:43:19;;;;;;;0.40;0.20;;;;;;;9.99;90.21;97650.22;5053313;28;20167;-39
2023/11/06 04:45:45;;;;;;;2.42;0.60;;;;;;;10.01;89.28;97655.31;5052588;28;20037;-38
2023/11/06 04:48:11;;;;;;;0.70;0.45;;;;;;;9.87;88.84;97637.19;5054908;28;20036;-39
2023/11/06 04:50:37;;;;;;;0.70;0.40;;;;;;;10.02;87.60;97655.22;5054684;28;20551;-40
2023/11/06 04:53:03;;;;;;;1.50;0.80;;;;;;;10.00;87.95;97662.25;5056173;28;20108;-40
2023/11/06 04:55:29;;;;;;;0.93;0.70;;;;;;;10.06;87.91;97661.88;5050767;28;20139;-40
2023/11/06 04:57:55;;;;;;;2.35;1.20;;;;;;;10.08;87.62;97656.59;5041509;28;20045;-40
2023/11/06 05:00:21;;;;;;;4.60;0.95;;;;;;;10.11;87.04;97661.56;5036161;28;20036;-40
2023/11/06 05:02:47;;;;;;;3.13;1.58;;;;;;;10.13;87.55;97655.34;5051186;28;20048;-40
2023/11/06 05:05:13;;;;;;;2.03;1.10;;;;;;;10.16;86.86;97662.97;5032725;28;20034;-40
2023/11/06 05:07:40;;;;;;;1.17;0.77;;;;;;;10.14;86.50;97657.03;5025114;28;20406;-39
2023/11/06 05:10:07;;;;;;;1.70;0.90;;;;;;;10.15;85.60;97670.84;5035716;28;20041;-40
2023/11/06 05:12:32;;;;;;;2.38;1.35;;;;;;;10.15;85.73;97653.47;5031683;28;20052;-40
2023/11/06 05:15:01;;;;;;;3.88;1.48;;;;;;;10.07;85.65;97637.56;5034551;28;20065;-40
2023/11/06 05:17:32;;;;;;;2.42;1.00;;;;;;;10.17;85.00;97662.03;5034408;28;20044;-40
2023/11/06 05:19:58;;;;;;;2.03;1.13;;;;;;;10.16;85.91;97655.16;5032922;28;20104;-40
2023/11/06 05:22:24;;;;;;;4.07;1.27;;;;;;;10.21;86.08;97654.88;5036404;28;20040;-41
2023/11/06 05:24:50;;;;;;;2.42;1.10;;;;;;;10.23;85.99;97649.59;5040489;28;20078;-39
2023/11/06 05:27:16;;;;;;;1.60;1.02;;;;;;;10.22;86.15;97664.34;5054115;28;20048;-40
2023/11/06 05:29:42;;;;;;;1.25;0.65;;;;;;;10.19;86.13;97651.56;5053523;28;20532;-40
2023/11/06 05:32:08;;;;;;;3.95;0.93;;;;;;;10.19;86.08;97667.13;5057019;28;20080;-40
2023/11/06 05:34:34;;;;;;;3.05;1.10;;;;;;;10.18;86.22;97650.72;5057885;28;20420;-40
2023/11/06 05:37:00;;;;;;;2.75;0.73;;;;;;;10.23;86.68;97673.78;5055217;28;20045;-39
2023/11/06 05:39:26;;;;;;;3.33;0.80;;;;;;;10.08;86.71;97631.44;5038434;28;20033;-41
2023/11/06 05:41:52;;;;;;;1.08;0.75;;;;;;;10.22;86.27;97663.50;5052930;28;20046;-40
2023/11/06 05:44:18;;;;;;;1.95;1.00;;;;;;;10.25;86.56;97652.94;5051186;28;20048;-40
2023/11/06 05:46:44;;;;;;;1.90;1.02;;;;;;;10.32;87.15;97651.56;5051766;28;20504;-40
2023/11/06 05:49:12;;;;;;;1.13;0.80;;;;;;;10.37;86.29;97650.34;5056972;28;20057;-40
2023/11/06 05:51:38;;;;;;;3.40;1.20;;;;;;;10.38;86.22;97662.41;5052429;28;20045;-39
2023/11/06 05:54:05;;;;;;;1.42;0.60;;;;;;;10.19;86.22;97643.78;5051002;28;20265;-40
2023/11/06 05:56:31;;;;;;;0.98;0.60;;;;;;;10.33;86.63;97669.66;5067725;28;20059;-41
2023/11/06 05:58:57;;;;;;;0.45;0.40;;;;;;;10.26;87.53;97663.19;5052420;28;20044;-40
2023/11/06 06:01:23;;;;;;;1.58;0.60;;;;;;;10.24;87.61;97674.63;5052279;28;20114;-40
2023/11/06 06:03:49;;;;;;;2.42;0.60;;;;;;;10.23;87.50;97666.00;5055276;28;20041;-41
2023/11/06 06:06:16;;;;;;;2.30;0.68;;;;;;;10.04;87.62;97616.19;5053788;28;20054;-39
2023/11/06 06:08:43;;;;;;;3.05;0.80;;;;;;;10.36;87.74;97666.03;5054698;28;20047;-39
2023/11/06 06:11:09;;;;;;;2.97;0.60;;;;;;;10.38;87.51;97656.38;5041123;28;20513;-40
2023/11/06 06:13:35;;;;;;;1.08;0.75;;;;;;;10.45;87.44;97660.25;5033617;28;20036;-39
2023/11/06 06:16:02;;;;;;;1.65;0.80;;;;;;;10.57;87.65;97660.25;5048350;28;20045;-40
2023/11/06 06:18:29;;;;;;;2.70;0.80;;;;;;;10.57;87.15;97652.44;5014943;28;20041;-40
2023/11/06 06:20:55;;;;;;;4.13;1.10;;;;;;;10.68;87.24;97648.31;5039282;28;20030;-39
2023/11/06 06:23:21;;;;;;;1.42;0.70;;;;;;;10.70;87.05;97634.28;5033421;28;20424;-41
2023/11/06 06:25:47;;;;;;;1.02;0.70;;;;;;;10.80;86.26;97653.50;5033043;28;20072;-40
2023/11/06 06:28:13;;;;;;;2.72;0.85;;;;;;;10.73;85.39;97634.06;5033979;28;20049;-41
2023/11/06 06:30:39;;;;;;;2.95;1.20;;;;;;;10.76;85.14;97659.84;5030817;28;20041;-39
2023/11/06 06:33:05;;;;;;;1.02;0.77;;;;;;;10.67;85.15;97649.25;5049915;28;20099;-40
2023/11/06 06:35:31;;;;;;;2.38;0.90;;;;;;;10.60;85.33;97659.22;5042948;28;20040;-41
2023/11/06 06:37:57;;;;;;;1.70;0.80;;;;;;;10.65;86.19;97656.31;5030891;28;20136;-40
2023/11/06 06:40:25;;;;;;;3.53;0.80;;;;;;;10.70;85.68;97655.06;5026537;28;20143;-39
2023/11/06 06:42:51;;;;;;;3.38;1.30;;;;;;;10.71;85.22;97663.69;5032964;28;20655;-40
2023/11/06 06:45:17;;;;;;;0.98;0.70;;;;;;;10.66;85.42;97653.63;5045374;28;20048;-40
2023/11/06 06:47:43;;;;;;;2.30;1.30;;;;;;;10.66;85.41;97650.19;5035931;28;20037;-40
2023/11/06 06:50:09;;;;;;;1.92;1.10;;;;;;;10.81;85.28;97652.56;5032463;28;20033;-40
2023/11/06 06:52:35;;;;;;;2.03;1.00;;;;;;;10.82;84.06;97648.22;5031526;28;20041;-40
2023/11/06 06:55:02;;;;;;;6.50;1.30;;;;;;;10.80;84.36;97650.91;5033801;28;20031;-40
2023/11/06 06:57:29;;;;;;;4.05;1.40;;;;;;;10.79;84.34;97651.00;5046327;28;20439;-40
2023/11/06 06:59:55;;;;;;;3.20;2.20;;;;;;;10.82;84.45;97638.66;5031385;28;20583;-40
2023/11/06 07:02:22;;;;;;;6.55;1.85;;;;;;;10.77;84.35;97625.13;5031202;28;20037;-39
2023/11/06 07:04:48;;;;;;;3.22;1.80;;;;;;;10.94;84.18;97650.78;5048082;28;20132;-40
2023/11/06 07:07:14;;;;;;;2.33;1.48;;;;;;;10.89;83.94;97642.47;5033481;28;20622;-40
2023/11/06 07:09:40;;;;;;;4.85;2.35;;;;;;;10.87;84.22;97652.16;5033602;28;20132;-41
2023/11/06 07:12:07;;;;;;;4.03;2.17;;;;;;;10.85;84.20;97648.00;5048777;28;20077;-40
2023/11/06 07:14:33;;;;;;;5.20;2.63;;;;;;;10.89;84.42;97646.84;5045344;28;20041;-39
2023/11/06 07:17:04;;;;;;;4.60;1.92;;;;;;;10.95;85.00;97641.22;5025257;28;20049;-40
2023/11/06 07:19:34;;;;;;;6.18;2.45;;;;;;;11.00;84.60;97645.19;5037507;28;20044;-40
2023/11/06 07:22:01;;;;;;;6.10;2.65;;;;;;;11.05;84.63;97647.47;5030369;28;20040;-40
2023/11/06 07:24:27;;;;;;;3.92;2.35;;;;;;;11.02;84.72;97643.31;5031241;28;20775;-40
2023/11/06 07:26:54;;;;;;;5.70;2.75;;;;;;;11.03;84.75;97658.00;5031821;28;20119;-39
2023/11/06 07:29:21;;;;;;;4.43;2.53;;;;;;;11.02;85.07;97648.53;5032835;28;20057;-40
2023/11/06 07:31:50;;;;;;;4.28;2.40;;;;;;;11.08;85.42;97641.22;5030407;28;20136;-39
2023/11/06 07:34:18;;;;;;;6.40;2.50;;;;;;;11.15;85.52;97647.69;5035483;28;20047;-41
2023/11/06 07:36:44;;;;;;;6.20;2.50;;;;;;;11.17;85.35;97633.63;5030378;28;20218;-40
2023/11/06 07:39:10;;;;;;;4.70;2.70;;;;;;;11.24;85.51;97650.47;5035005;28;20041;-40
2023/11/06 07:41:36;;;;;;;6.40;3.08;;;;;;;11.20;85.31;97648.19;5031155;28;20079;-40
2023/11/06 07:44:02;;;;;;;6.55;3.28;;;;;;;11.07;85.85;97608.38;5044672;28;20037;-40
2023/11/06 07:46:28;;;;;;;5.57;2.75;;;;;;;11.32;85.44;97648.16;5032367;28;20045;-41
2023/11/06 07:48:54;;;;;;;5.40;2.75;;;;;;;11.32;85.93;97636.91;5028646;28;20046;-39
2023/11/06 07:51:20;;;;;;;5.78;3.45;;;;;;;11.26;86.49;97639.94;5033121;28;20049;-39
2023/11/06 07:53:45;;;;;;;4.38;2.28;;;;;;;11.22;86.48;97659.31;5042559;28;20032;-40
2023/11/06 07:56:13;;;;;;;6.68;3.15;;;;;;;11.13;87.02;97658.19;5032056;28;20052;-41
2023/11/06 07:58:41;;;;;;;6.53;3.00;;;;;;;11.10;87.55;97671.38;5032813;28;20645;-41
2023/11/06 08:01:08;;;;;;;6.82;3.05;;;;;;;11.06;88.29;97664.72;5031788;28;20056;-40
2023/11/06 08:03:34;;;;;;;5.35;2.88;;;;;;;11.05;88.83;97661.28;5032127;28;20042;-40
2023/11/06 08:06:00;;;;;;;6.82;3.30;;;;;;;11.10;88.64;97636.75;5048047;28;20429;-41
2023/11/06 08:08:26;;;;;;;5.10;3.10;;;;;;;11.14;88.70;97646.84;5041384;28;20047;-40
2023/11/06 08:10:52;;;;;;;7.63;4.22;;;;;;;11.12;89.36;97643.50;5036534;28;20048;-40
2023/11/06 08:13:17;;;;;;;5.93;3.55;;;;;;;11.15;89.10;97650.28;5049388;28;20044;-41
2023/11/06 08:15:43;;;;;;;5.47;3.67;;;;;;;11.12;89.54;97646.13;5049849;28;20033;-41
2023/11/06 08:18:09;;;;;;;7.60;4.05;;;;;;;11.12;89.44;97655.69;5045692;28;20088;-41
2023/11/06 08:20:36;;;;;;;7.63;4.13;;;;;;;11.07;89.94;97639.56;5032467;28;20038;-41
2023/11/06 08:23:02;;;;;;;6.55;4.30;;;;;;;11.05;90.43;97640.50;5034549;28;20766;-40
2023/11/06 08:25:31;;;;;;;8.52;3.95;;;;;;;11.08;90.98;97638.63;5050860;28;20072;-41
2023/11/06 08:27:57;;;;;;;6.72;3.88;;;;;;;10.97;91.27;97626.38;5033526;28;20087;-40
2023/11/06 08:30:23;;;;;;;7.82;4.40;;;;;;;11.10;91.95;97629.78;5051857;28;20049;-40
2023/11/06 08:32:49;;;;;;;7.93;4.32;;;;;;;11.09;92.23;97630.72;5044719;28;20183;-40
2023/11/06 08:35:15;;;;;;;8.50;4.53;;;;;;;11.10;92.44;97631.53;5038001;28;20041;-39
2023/11/06 08:37:41;;;;;;;9.20;4.75;;;;;;;11.09;93.03;97630.72;5028985;28;20041;-41
2023/11/06 08:40:07;;;;;;;8.55;5.15;;;;;;;11.09;93.59;97627.31;5048326;28;20087;-40
2023/11/06 08:42:36;;;;;;;10.95;5.32;;;;;;;10.92;93.83;97590.28;5039874;28;20040;-41
2023/11/06 08:45:03;;;;;;;7.88;4.97;;;;;;;10.94;94.01;97590.16;5059549;28;20037;-41
2023/11/06 08:47:31;;;;;;;7.20;4.70;;;;;;;11.11;94.44;97628.00;5049925;28;20163;-41
2023/11/06 08:49:57;;;;;;;6.60;4.70;;;;;;;11.11;95.12;97615.00;5052918;28;20149;-40
2023/11/06 08:52:23;;;;;;;8.98;4.20;;;;;;;11.12;94.93;97616.66;5052983;28;20043;-39
2023/11/06 08:54:49;;;;;;;7.93;4.70;;;;;;;11.22;95.01;97597.72;5045403;28;20029;-39
2023/11/06 08:57:16;;;;;;;8.57;4.18;;;;;;;11.32;94.48;97579.69;5059582;28;20045;-40
2023/11/06 08:59:43;;;;;;;9.57;4.47;;;;;;;11.44;94.16;97577.06;5054543;28;20052;-41
2023/11/06 09:02:10;;;;;;;10.18;4.50;;;;;;;11.42;94.07;97591.09;5030089;28;20045;-42
2023/11/06 09:04:40;;;;;;;9.02;4.97;;;;;;;11.33;94.06;97579.59;5044414;28;20037;-40
2023/11/06 09:07:07;;;;;;;7.72;4.88;;;;;;;11.33;94.72;97583.97;5040254;28;20049;-41
2023/11/06 09:09:33;;;;;;;5.57;3.45;;;;;;;11.35;94.65;97580.31;5040205;28;20070;-40
2023/11/06 09:11:59;;;;;;;8.48;4.53;;;;;;;11.37;94.36;97581.03;5040758;28;20371;-40
2023/11/06 09:14:25;;;;;;;7.13;4.22;;;;;;;11.16;94.32;97537.50;5048237;28;20501;-41
2023/11/06 09:16:51;;;;;;;8.00;4.25;;;;;;;11.38;94.11;97568.84;5034910;28;20036;-39
2023/11/06 09:19:17;;;;;;;11.63;6.05;;;;;;;11.39;94.13;97573.13;5030855;28;20417;-40
2023/11/06 09:21:43;;;;;;;7.72;4.57;;;;;;;11.42;93.72;97565.09;5045758;28;20040;-40
2023/11/06 09:24:09;;;;;;;6.57;4.22;;;;;;;11.39;94.05;97566.16;5039669;28;20603;-40
2023/11/06 09:26:35;;;;;;;7.95;4.85;;;;;;;11.39;93.69;97566.16;5034938;28;20045;-39
2023/11/06 09:29:01;;;;;;;7.65;5.15;;;;;;;11.41;93.63;97564.25;5034669;28;20425;-40
2023/11/06 09:31:28;;;;;;;7.80;4.57;;;;;;;11.40;93.81;97557.41;5034128;28;20060;-40
2023/11/06 09:33:54;;;;;;;9.02;4.75;;;;;;;11.15;93.45;97513.25;5035802;28;20045;-40
2023/11/06 09:36:21;;;;;;;10.23;5.53;;;;;;;11.42;93.29;97552.91;5033371;28;20048;-41
2023/11/06 09:38:48;;;;;;;8.52;4.93;;;;;;;11.46;93.27;97543.13;5032080;28;20510;-39
2023/11/06 09:41:14;;;;;;;8.60;5.00;;;;;;;11.50;93.52;97547.19;5049811;28;20044;-41
2023/11/06 09:43:41;;;;;;;6.90;4.70;;;;;;;11.48;92.76;97542.06;5053575;28;20045;-40
2023/11/06 09:46:09;;;;;;;9.23;5.40;;;;;;;11.49;92.82;97537.69;5043687;28;20139;-40
2023/11/06 09:48:36;;;;;;;9.15;5.70;;;;;;;11.55;92.50;97531.22;5049671;28;20040;-42
2023/11/06 09:51:10;;;;;;;8.15;5.07;;;;;;;11.57;92.54;97526.72;5047416;28;20048;-41
2023/11/06 09:53:40;;;;;;;11.48;5.55;;;;;;;11.47;92.57;97496.19;5031663;28;20083;-41
2023/11/06 09:56:09;;;;;;;8.52;4.75;;;;;;;11.70;91.73;97510.13;5045793;28;20033;-41
2023/11/06 09:58:39;;;;;;;10.52;5.32;;;;;;;11.75;92.15;97508.03;5049817;28;20804;-42
2023/11/06 10:01:08;;;;;;;11.40;5.75;;;;;;;11.80;91.61;97495.50;5038203;28;20047;-40
2023/11/06 10:03:36;;;;;;;9.18;5.28;;;;;;;11.94;90.58;97509.25;5054213;28;20037;-41
2023/11/06 10:06:03;;;;;;;11.13;5.28;;;;;;;11.97;90.53;97528.13;5051724;28;20044;-39
2023/11/06 10:08:31;;;;;;;11.00;5.75;;;;;;;11.81;90.26;97499.78;5054276;28;20040;-41
2023/11/06 10:11:00;;;;;;;11.73;5.90;;;;;;;11.89;90.50;97507.00;5051046;28;20052;-41
2023/11/06 10:13:28;;;;;;;11.70;6.50;;;;;;;11.96;90.39;97507.38;5053928;28;20041;-41
2023/11/06 10:15:55;;;;;;;11.50;6.40;;;;;;;12.01;90.52;97505.25;5051223;28;20092;-40
2023/11/06 10:18:25;;;;;;;11.43;6.97;;;;;;;11.96;90.41;97492.59;5038399;28;20041;-40
2023/11/06 10:20:53;;;;;;;12.98;6.80;;;;;;;11.99;90.76;97496.72;5049127;28;20045;-39
2023/11/06 10:23:26;;;;;;;11.50;6.60;;;;;;;11.91;90.87;97481.69;5052074;28;20198;-40
2023/11/06 10:26:13;;;;;;;11.63;6.95;;;;;;;12.03;90.85;97485.16;5053394;28;20146;-42
2023/11/06 10:28:39;;;;;;;12.38;6.50;;;;;;;12.07;90.54;97478.78;5050758;28;20428;-40
2023/11/06 10:31:05;;;;;;;13.07;6.60;;;;;;;12.18;90.26;97478.78;5044057;28;20072;-40
2023/11/06 10:33:34;;;;;;;12.40;7.38;;;;;;;12.27;89.80;97491.09;5041973;28;20040;-39
2023/11/06 10:36:00;;;;;;;11.97;7.20;;;;;;;12.30;89.72;97476.06;5044539;28;20029;-40
2023/11/06 10:38:35;;;;;;;13.00;7.05;;;;;;;12.32;89.16;97475.97;5046419;28;20275;-41
2023/11/06 10:41:26;;;;;;;14.18;7.68;;;;;;;12.42;89.31;97483.88;5039920;28;20045;-40
2023/11/06 10:43:57;;;;;;;17.33;8.00;;;;;;;12.38;88.71;97472.06;5043164;28;20037;-41
2023/11/06 10:46:31;;;;;;;12.07;6.80;;;;;;;12.29;88.90;97465.78;5047222;28;20044;-40
2023/11/06 10:49:04;;;;;;;16.10;7.15;;;;;;;12.31;89.08;97464.69;5052481;28;20046;-40
2023/11/06 10:51:31;;;;;;;15.02;7.45;;;;;;;12.20;89.62;97469.06;5050131;28;20044;-40
2023/11/06 10:54:00;;;;;;;17.52;7.80;;;;;;;12.15;90.27;97460.78;5069810;28;20047;-40
2023/11/06 10:56:26;;;;;;;14.70;7.60;;;;;;;12.19;90.48;97464.81;5048390;28;20076;-40
2023/11/06 10:58:54;;;;;;;20.35;8.75;;;;;;;12.17;90.59;97466.72;5046951;28;20064;-40
2023/11/06 11:01:22;;;;;;;17.40;8.43;;;;;;;12.10;91.33;97450.72;5028949;28;20052;-40
2023/11/06 11:03:48;;;;;;;15.57;8.50;;;;;;;12.13;91.93;97449.66;5041861;28;20159;-41
2023/11/06 11:06:15;;;;;;;17.27;8.38;;;;;;;12.11;91.96;97454.16;5044110;28;20512;-40
2023/11/06 11:08:41;;;;;;;17.80;8.93;;;;;;;12.07;92.58;97437.09;5035546;28;20029;-40
2023/11/06 11:11:09;;;;;;;16.33;8.95;;;;;;;12.05;92.77;97439.81;5031629;28;20045;-42
2023/11/06 11:13:35;;;;;;;21.60;9.65;;;;;;;12.04;93.06;97442.53;5049384;28;20135;-41
2023/11/06 11:16:40;;;;;;;14.93;8.68;;;;;;;12.07;93.01;97443.16;5046389;28;20037;-40
2023/11/06 11:19:31;;;;;;;17.65;8.75;;;;;;;12.03;93.07;97433.09;5044442;28;20796;-39
2023/11/06 11:22:08;;;;;;;17.70;8.93;;;;;;;11.99;93.25;97429.84;5041556;28;20539;-40
2023/11/06 11:24:47;;;;;;;17.77;8.00;;;;;;;12.06;93.62;97433.66;5030998;28;20137;-40
2023/11/06 11:27:18;;;;;;;15.00;8.20;;;;;;;11.87;93.55;97412.59;5031395;28;20128;-40
2023/11/06 11:29:53;;;;;;;19.50;8.57;;;;;;;12.03;93.41;97435.69;5030419;28;20111;-41